Prophetstown, Illinois
Current Conditions -  °F | °C
As of 8:55 PM on Wednesday 26 Nov 2014 (Local Time) from KSQI Reporting Station
Overcast Overcast  
Wind Chill: 27°   Ceiling: 1900
Heat Index: 27°   Visibility: 10mi
Dew Point: 19°   Wind: 3mph
Humidity: 74%   Direction: 360°N
Pressure: 30.21"   Gusts: NA
Location:  41.67°N, 89.94°W
Report Text: KSQI 270255Z 36003KT 10SM OVC019 M03/M07 A3021 RMK AO1 52020
Loading
Personal Weather Stations






























Interactive Weather Map New forecast layout! Learn more

10-Day Weather Forecast

Advertisements
Track Severe Weather on mobile